Wetterdaten: aktuell Samstag, 01.11.2014 06:06
Datum Zeit Temperatur Feuchte Luftdruck Regen Wind Richtung Richtung Taupunkt Windchill
01.11.2014 06:06 10,6 C 94 % 1020,0 hPa 0,0 l/m 13,5 km/h (3 Bft) O-SO22.5 105 9,7 C 10,6 C
01.11.2014 05:06 10,8 C 94 % 1020,0 hPa 0,0 l/m 13,4 km/h (3 Bft) O22.5 100 9,9 C 10,8 C
01.11.2014 04:12 10,8 C 93 % 1020,0 hPa 0,0 l/m 14,8 km/h (3 Bft) O-SO45 110 9,7 C 10,8 C
01.11.2014 03:18 11,2 C 93 % 1019,9 hPa 0,0 l/m 13,6 km/h (3 Bft) O-SO45 110 10,1 C 11,2 C
01.11.2014 02:24 11,2 C 93 % 1021,0 hPa 0,0 l/m 13,0 km/h (3 Bft) O-SO45 110 10,1 C 11,2 C
01.11.2014 01:30 11,4 C 93 % 1020,9 hPa 0,0 l/m 12,2 km/h (2 Bft) O-SO22.5 105 10,3 C 11,4 C
01.11.2014 00:36 11,9 C 93 % 1020,9 hPa 0,0 l/m 13,3 km/h (3 Bft) O-SO45 115 10,8 C 11,9 C
31.10.2014 23:42 12,0 C 93 % 1020,9 hPa 0,0 l/m 13,1 km/h (3 Bft) O-SO45 110 10,9 C 12,0 C
31.10.2014 22:48 12,3 C 92 % 1021,9 hPa 0,0 l/m 14,0 km/h (3 Bft) O-SO22.5 105 11,0 C 12,3 C
31.10.2014 21:54 12,8 C 91 % 1021,8 hPa 0,0 l/m 15,1 km/h (3 Bft) O-SO45 115 11,4 C 12,8 C
31.10.2014 21:00 13,4 C 91 % 1021,8 hPa 0,0 l/m 12,8 km/h (3 Bft) O-SO 115 12,0 C 13,4 C
31.10.2014 20:06 14,0 C 90 % 1021,7 hPa 0,0 l/m 16,2 km/h (3 Bft) SO45 125 12,4 C 14,0 C
31.10.2014 19:12 14,4 C 88 % 1021,7 hPa 0,0 l/m 13,0 km/h (3 Bft) O-SO45 120 12,4 C 14,4 C
31.10.2014 18:18 14,8 C 87 % 1021,7 hPa 0,0 l/m 15,5 km/h (3 Bft) SO45 125 12,7 C 14,8 C
31.10.2014 17:24 15,4 C 85 % 1021,6 hPa 0,0 l/m 15,3 km/h (3 Bft) SO22.5 135 12,9 C 15,4 C
31.10.2014 16:30 16,4 C 83 % 1021,5 hPa 0,0 l/m 9,9 km/h (2 Bft) SO67.5 130 13,5 C 16,4 C
31.10.2014 15:36 17,2 C 80 % 1021,5 hPa 0,0 l/m 17,1 km/h (3 Bft) SO45 125 13,7 C 17,2 C
31.10.2014 14:42 18,1 C 78 % 1021,4 hPa 0,0 l/m 13,5 km/h (3 Bft) SO45 135 14,2 C 18,1 C
31.10.2014 13:48 17,8 C 80 % 1021,4 hPa 0,0 l/m 18,6 km/h (3 Bft) SO45 130 14,3 C 17,8 C
31.10.2014 12:54 17,1 C 83 % 1022,5 hPa 0,0 l/m 14,0 km/h (3 Bft) O-SO67.5 120 14,2 C 17,1 C
31.10.2014 12:00 16,7 C 84 % 1022,5 hPa 0,0 l/m 14,5 km/h (3 Bft) SO67.5 140 14,0 C 16,7 C
31.10.2014 11:06 15,7 C 88 % 1022,6 hPa 0,0 l/m 12,3 km/h (3 Bft) O-SO45 120 13,7 C 15,7 C
31.10.2014 10:12 14,4 C 93 % 1022,7 hPa 0,0 l/m 15,9 km/h (3 Bft) SO67.5 125 13,3 C 14,4 C
31.10.2014 09:18 13,2 C 97 % 1022,8 hPa 0,0 l/m 12,6 km/h (3 Bft) O-SO45 115 12,7 C 13,2 C
31.10.2014 08:24 12,1 C 98 % 1022,9 hPa 0,0 l/m 14,0 km/h (3 Bft) O-SO22.5 110 11,8 C 12,1 C
31.10.2014 07:30 11,6 C 98 % 1023,0 hPa 0,0 l/m 11,8 km/h (2 Bft) O-SO 110 11,3 C 11,6 C
31.10.2014 07:00 11,5 C 98 % 1022,0 hPa 0,0 l/m 12,6 km/h (3 Bft) O-SO45 115 11,2 C 11,5 C
_ Min-Zeit 06:06 14:45 03:09 - 16:24 - - 06:06 06:06
Minimum _ 10,6 C 77 % 1019,9 hPa - 7,9 km/h (2 Bft) - - 9,7 C 10,6 C
_ Max-Zeit 14:24 07:00 07:33 07:00 14:30 - - 14:00 14:24
Maximum _ 18,3 C 98 % 1023,0 hPa 0,0 l/m 24,5 km/h
SO (4 Bft)
- - 14,5 C 18,3 C
Durchschnitt _ 13,6 C 90 % 1021,6 hPa #0,0 l/m 13,7 km/h (3 Bft) O-SO - 12,0 C 13,6 C